Crab Orchard, Tennessee
Current Conditions -  °F | °C
As of 3:53 AM on Tuesday 27 Jan 2015 (Local Time) from KCSV Reporting Station
Haze Haze  
Wind Chill: 24°   Ceiling: 1400
Heat Index: 30°   Visibility: 4mi
Dew Point: 27°   Wind: 6mph
Humidity: 88%   Direction: 270°W
Pressure: 29.84"   Gusts: NA
Location:  35.91°N, 84.88°W
Report Text: KCSV 270953Z AUTO 27005KT 4SM BR SCT005 OVC014 M01/M03 A2984 RMK AO2 SLP118 I1001 T10111028
Loading
Personal Weather Stations






























Interactive Weather Map New forecast layout! Learn more

10-Day Weather Forecast

Advertisements
Track Severe Weather on mobile